Time;durP1;ratioP1;P1;durP2;ratioP2;P2;SDS_P1;SDS_P2;PMS_P1;PMS_P2;Temp;Humidity;BMP_temperature;BMP_pressure;BME280_temperature;BME280_humidity;BME280_pressure;Samples;Min_cycle;Max_cycle;Signal;HPM_P1;HPM_P2
2022/11/28 00:02:24;;;;;;;19.88;8.25;;;;;;;-1.38;100.00;100601.91;5152950;27;20046;-47
2022/11/28 00:04:51;;;;;;;17.88;8.02;;;;;;;-1.57;100.00;100609.44;5153298;27;20050;-48
2022/11/28 00:07:18;;;;;;;14.65;7.35;;;;;;;-1.50;100.00;100604.69;5153029;27;20051;-48
2022/11/28 00:09:45;;;;;;;16.10;7.95;;;;;;;-1.49;100.00;100606.34;5153293;27;20454;-46
2022/11/28 00:12:11;;;;;;;14.60;8.30;;;;;;;-1.61;100.00;100602.94;5152978;27;20167;-46
2022/11/28 00:14:37;;;;;;;16.50;8.85;;;;;;;-1.51;100.00;100611.97;5153072;27;20133;-46
2022/11/28 00:17:04;;;;;;;15.77;8.55;;;;;;;-1.57;100.00;100609.44;5152789;27;20047;-46
2022/11/28 00:19:30;;;;;;;15.85;8.27;;;;;;;-1.40;100.00;100606.69;5152756;27;20141;-47
2022/11/28 00:21:56;;;;;;;18.02;9.43;;;;;;;-1.81;100.00;100611.53;5152825;27;20061;-46
2022/11/28 00:24:25;;;;;;;16.80;8.40;;;;;;;-1.75;100.00;100614.06;5152698;27;20505;-46
2022/11/28 00:26:51;;;;;;;15.82;8.55;;;;;;;-1.82;100.00;100610.75;5152880;27;20050;-46
2022/11/28 00:29:17;;;;;;;17.42;8.82;;;;;;;-1.62;100.00;100620.97;5152641;27;20050;-46
2022/11/28 00:31:43;;;;;;;18.63;9.02;;;;;;;-1.80;100.00;100621.22;5152495;27;20051;-45
2022/11/28 00:34:11;;;;;;;16.23;8.02;;;;;;;-1.79;100.00;100622.88;5152529;27;20536;-45
2022/11/28 00:36:37;;;;;;;18.63;9.80;;;;;;;-1.63;100.00;100630.09;5152860;27;20089;-47
2022/11/28 00:39:04;;;;;;;16.70;8.02;;;;;;;-1.42;100.00;100639.25;5152346;27;20130;-46
2022/11/28 00:41:34;;;;;;;20.17;9.10;;;;;;;-1.56;100.00;100630.72;5152763;27;20072;-46
2022/11/28 00:44:00;;;;;;;25.13;8.52;;;;;;;-1.29;100.00;100625.44;5152493;27;20417;-46
2022/11/28 00:46:27;;;;;;;16.85;8.48;;;;;;;-1.29;100.00;100614.66;5152420;27;20053;-46
2022/11/28 00:48:53;;;;;;;16.17;7.95;;;;;;;-1.21;100.00;100591.88;5152578;27;20057;-45
2022/11/28 00:51:22;;;;;;;19.15;7.97;;;;;;;-1.22;100.00;100590.25;5152234;27;20050;-46
2022/11/28 00:53:50;;;;;;;17.60;8.18;;;;;;;-1.11;100.00;100580.41;5152266;27;20089;-45
2022/11/28 00:56:18;;;;;;;16.70;8.38;;;;;;;-1.07;100.00;100557.31;5152185;27;20509;-46
2022/11/28 00:58:46;;;;;;;18.42;8.88;;;;;;;-1.16;100.00;100554.28;5152299;27;20047;-47
2022/11/28 01:01:15;;;;;;;16.23;8.52;;;;;;;-1.04;100.00;100544.16;5152256;27;20074;-45
2022/11/28 01:03:42;;;;;;;16.73;8.55;;;;;;;-1.16;100.00;100540.81;5152360;27;20129;-45
2022/11/28 01:06:09;;;;;;;18.90;8.82;;;;;;;-1.22;100.00;100531.06;5152030;27;20501;-45
2022/11/28 01:08:36;;;;;;;15.20;7.28;;;;;;;-1.28;100.00;100532.06;5152122;27;20047;-46
2022/11/28 01:11:02;;;;;;;15.82;7.38;;;;;;;-1.24;100.00;100528.59;5152053;27;20054;-45
2022/11/28 01:13:29;;;;;;;16.58;8.75;;;;;;;-1.16;100.00;100543.50;5152088;27;20057;-45
2022/11/28 01:15:57;;;;;;;24.70;8.95;;;;;;;-1.22;100.00;100531.88;5151900;27;20051;-46
2022/11/28 01:18:23;;;;;;;17.85;8.32;;;;;;;-1.26;100.00;100520.00;5151791;27;20103;-45
2022/11/28 01:20:50;;;;;;;18.83;8.30;;;;;;;-1.09;100.00;100532.53;5151846;27;20046;-45
2022/11/28 01:23:17;;;;;;;20.55;8.23;;;;;;;-1.04;100.00;100516.44;5151746;27;20059;-46
2022/11/28 01:25:43;;;;;;;17.92;7.90;;;;;;;-1.03;100.00;100513.50;5151736;27;20047;-46
2022/11/28 01:28:09;;;;;;;13.60;7.22;;;;;;;-1.04;100.00;100517.22;5151824;27;20046;-46
2022/11/28 01:30:36;;;;;;;16.48;8.82;;;;;;;-1.15;100.00;100503.94;5151946;27;20129;-47
2022/11/28 01:33:03;;;;;;;14.45;8.07;;;;;;;-1.03;100.00;100502.72;5151702;27;20575;-47
2022/11/28 01:35:29;;;;;;;14.07;7.80;;;;;;;-1.03;100.00;100496.53;5151755;27;20387;-46
2022/11/28 01:37:55;;;;;;;14.57;7.85;;;;;;;-0.93;100.00;100491.25;5151615;27;20053;-45
2022/11/28 01:40:22;;;;;;;12.50;7.00;;;;;;;-0.94;100.00;100492.28;5151604;27;20050;-46
2022/11/28 01:42:48;;;;;;;19.45;8.48;;;;;;;-1.08;100.00;100473.06;5151491;27;20052;-45
2022/11/28 01:45:20;;;;;;;16.33;8.35;;;;;;;-0.99;100.00;100493.06;5151381;27;20055;-46
2022/11/28 01:47:48;;;;;;;16.30;8.23;;;;;;;-0.92;100.00;100483.97;5151501;27;20049;-45
2022/11/28 01:50:16;;;;;;;15.80;7.60;;;;;;;-0.93;100.00;100476.94;5151400;27;20465;-50
2022/11/28 01:52:46;;;;;;;17.05;7.55;;;;;;;-0.98;100.00;100483.91;5151336;27;20043;-48
2022/11/28 01:55:17;;;;;;;17.35;8.25;;;;;;;-1.06;100.00;100480.91;5151325;27;20053;-46
2022/11/28 01:57:44;;;;;;;13.30;7.10;;;;;;;-1.01;100.00;100489.00;5151616;27;20085;-45
2022/11/28 02:00:12;;;;;;;14.57;7.32;;;;;;;-1.00;100.00;100494.13;5151380;27;20050;-46
2022/11/28 02:02:41;;;;;;;16.77;8.18;;;;;;;-0.99;100.00;100484.19;5151566;27;20078;-46
2022/11/28 02:05:08;;;;;;;14.27;7.35;;;;;;;-1.02;100.00;100479.31;5151239;27;20121;-45
2022/11/28 02:07:36;;;;;;;17.17;8.02;;;;;;;-0.99;100.00;100485.00;5151234;27;20489;-46
2022/11/28 02:10:08;;;;;;;21.13;8.70;;;;;;;-1.13;100.00;100488.34;5151153;27;20055;-46
2022/11/28 02:12:53;;;;;;;14.38;7.63;;;;;;;-0.96;100.00;100492.56;5151115;27;20176;-47
2022/11/28 02:15:39;;;;;;;16.60;8.05;;;;;;;-0.97;100.00;100487.41;5151165;27;20089;-47
2022/11/28 02:18:18;;;;;;;17.08;7.88;;;;;;;-0.86;100.00;100491.84;5151214;27;20086;-47
2022/11/28 02:21:08;;;;;;;20.98;8.25;;;;;;;-0.91;100.00;100489.09;5151528;27;20447;-45
2022/11/28 02:24:11;;;;;;;16.83;8.32;;;;;;;-0.85;100.00;100492.63;5154604;27;20086;-46
2022/11/28 02:27:05;;;;;;;16.38;7.22;;;;;;;-0.83;100.00;100475.16;5154576;27;20142;-45
2022/11/28 02:30:08;;;;;;;18.42;8.20;;;;;;;-0.81;100.00;100466.81;5154933;27;20050;-45
2022/11/28 02:33:13;;;;;;;18.70;8.40;;;;;;;-0.85;100.00;100452.25;5154654;27;20103;-45
2022/11/28 02:35:53;;;;;;;20.63;8.93;;;;;;;-0.83;100.00;100448.25;5117175;27;20067;-45
2022/11/28 02:38:27;;;;;;;17.83;8.13;;;;;;;-0.84;100.00;100462.75;5154658;27;20053;-45
2022/11/28 02:41:01;;;;;;;18.60;7.57;;;;;;;-0.93;100.00;100461.63;5154455;27;20501;-45
2022/11/28 02:43:34;;;;;;;18.27;8.18;;;;;;;-0.83;100.00;100469.78;5154559;27;20501;-45
2022/11/28 02:46:10;;;;;;;17.67;8.90;;;;;;;-0.89;100.00;100476.19;5154160;27;20069;-46
2022/11/28 02:48:43;;;;;;;20.85;8.73;;;;;;;-0.86;100.00;100480.25;5154270;27;20043;-46
2022/11/28 02:51:14;;;;;;;18.70;8.83;;;;;;;-0.83;100.00;100482.44;5154443;27;20505;-45
2022/11/28 02:53:43;;;;;;;18.35;8.95;;;;;;;-0.93;100.00;100474.25;5154165;27;20502;-45
2022/11/28 02:56:12;;;;;;;17.90;8.27;;;;;;;-0.78;100.00;100491.34;5154502;27;20076;-45
2022/11/28 02:58:38;;;;;;;19.20;8.38;;;;;;;-0.72;100.00;100487.63;5154048;27;20074;-46
2022/11/28 03:01:06;;;;;;;15.95;8.02;;;;;;;-0.82;100.00;100484.88;5154395;27;20050;-45
2022/11/28 03:03:55;;;;;;;15.25;7.53;;;;;;;-0.83;100.00;100485.13;5154100;27;20055;-45
2022/11/28 03:06:32;;;;;;;18.77;9.73;;;;;;;-1.23;100.00;100491.78;5153855;27;20050;-45
2022/11/28 03:09:39;;;;;;;23.40;9.73;;;;;;;-0.87;100.00;100510.91;5153909;27;20051;-45
2022/11/28 03:12:17;;;;;;;19.90;9.43;;;;;;;-0.96;100.00;100497.94;5153967;27;20042;-46
2022/11/28 03:14:50;;;;;;;19.90;9.32;;;;;;;-0.85;100.00;100506.09;5153919;27;20046;-46
2022/11/28 03:17:23;;;;;;;17.05;8.65;;;;;;;-0.84;100.00;100508.53;5154004;27;20046;-47
2022/11/28 03:19:58;;;;;;;17.00;8.70;;;;;;;-0.78;100.00;100506.69;5153923;27;20061;-47
2022/11/28 03:22:31;;;;;;;20.15;8.93;;;;;;;-0.73;100.00;100495.97;5153824;27;20490;-45
2022/11/28 03:25:05;;;;;;;32.03;10.38;;;;;;;-0.78;100.00;100502.13;5153929;27;20129;-45
2022/11/28 03:27:36;;;;;;;23.25;10.20;;;;;;;-1.27;100.00;100493.31;5153853;27;20513;-45
2022/11/28 03:30:08;;;;;;;19.77;9.43;;;;;;;-1.10;100.00;100522.81;5153784;27;20042;-46
2022/11/28 03:32:37;;;;;;;21.00;9.77;;;;;;;-0.82;100.00;100533.31;5152447;27;20047;-46
2022/11/28 03:35:09;;;;;;;22.52;9.88;;;;;;;-0.73;100.00;100509.44;5153553;27;20053;-46
2022/11/28 03:37:41;;;;;;;20.95;8.90;;;;;;;-0.65;100.00;100516.22;5153472;27;20103;-45
2022/11/28 03:40:13;;;;;;;19.00;9.55;;;;;;;-1.02;100.00;100504.34;5153378;27;20055;-47
2022/11/28 03:42:43;;;;;;;21.58;10.20;;;;;;;-0.83;100.00;100512.88;5153520;27;20049;-45
2022/11/28 03:45:15;;;;;;;23.70;9.85;;;;;;;-0.90;100.00;100522.19;5153315;27;20082;-47
2022/11/28 03:47:45;;;;;;;23.98;9.75;;;;;;;-0.71;100.00;100534.22;5153434;27;20107;-46
2022/11/28 03:50:19;;;;;;;19.75;9.65;;;;;;;-1.01;100.00;100529.38;5153560;27;20047;-45
2022/11/28 03:52:49;;;;;;;20.02;9.13;;;;;;;-1.34;100.00;100533.06;5153353;27;20505;-46
2022/11/28 03:55:21;;;;;;;25.65;9.73;;;;;;;-0.91;100.00;100555.59;5153522;27;20156;-46
2022/11/28 03:57:54;;;;;;;26.70;10.57;;;;;;;-0.91;100.00;100555.59;5153142;27;20114;-46
2022/11/28 04:00:20;;;;;;;22.90;9.63;;;;;;;-0.67;100.00;100551.50;5153143;27;20061;-46
2022/11/28 04:02:54;;;;;;;18.35;9.73;;;;;;;-0.73;100.00;100545.25;5153130;27;20055;-47
2022/11/28 04:05:27;;;;;;;25.90;11.60;;;;;;;-0.68;100.00;100533.72;5153184;27;20054;-46
2022/11/28 04:07:58;;;;;;;32.90;10.57;;;;;;;-0.78;100.00;100509.41;5153035;27;20099;-46
2022/11/28 04:10:31;;;;;;;25.52;10.40;;;;;;;-1.16;100.00;100500.44;5153000;27;20051;-45
2022/11/28 04:13:04;;;;;;;29.98;10.50;;;;;;;-0.81;100.00;100532.25;5152917;27;20094;-46
2022/11/28 04:15:37;;;;;;;19.80;9.90;;;;;;;-0.74;100.00;100543.63;5152968;27;20138;-47
2022/11/28 04:18:10;;;;;;;25.75;10.02;;;;;;;-0.78;100.00;100541.72;5153223;27;20047;-46
2022/11/28 04:20:43;;;;;;;26.92;10.43;;;;;;;-1.02;100.00;100557.38;5153020;27;20470;-48
2022/11/28 04:23:14;;;;;;;26.92;11.23;;;;;;;-1.05;100.00;100566.75;5152740;27;20102;-49
2022/11/28 04:25:47;;;;;;;32.88;11.60;;;;;;;-1.07;100.00;100568.06;5152974;27;20519;-46
2022/11/28 04:28:18;;;;;;;29.48;10.48;;;;;;;-0.88;100.00;100574.72;5152547;27;20051;-45
2022/11/28 04:30:47;;;;;;;28.60;11.15;;;;;;;-1.05;100.00;100590.16;5152593;27;20391;-46
2022/11/28 04:33:15;;;;;;;32.72;12.82;;;;;;;-1.01;100.00;100594.78;5152679;27;20046;-46
2022/11/28 04:35:46;;;;;;;26.60;12.23;;;;;;;-1.06;100.00;100605.50;5152733;27;20043;-46
2022/11/28 04:38:13;;;;;;;33.83;11.80;;;;;;;-1.58;100.00;100613.22;5152403;27;20107;-45
2022/11/28 04:40:45;;;;;;;35.85;11.23;;;;;;;-1.36;100.00;100632.06;5152380;27;20063;-46
2022/11/28 04:43:18;;;;;;;24.48;9.30;;;;;;;-1.23;100.00;100645.97;5152835;27;20054;-46
2022/11/28 04:45:50;;;;;;;22.95;10.10;;;;;;;-0.93;100.00;100647.38;5151868;27;20137;-46
2022/11/28 04:48:17;;;;;;;29.60;10.35;;;;;;;-0.96;100.00;100646.00;5152511;27;20098;-45
2022/11/28 04:50:49;;;;;;;27.52;10.88;;;;;;;-0.81;100.00;100642.66;5152242;27;20126;-46
2022/11/28 04:53:25;;;;;;;24.15;9.75;;;;;;;-1.50;100.00;100637.81;5152438;27;20449;-46
2022/11/28 04:55:57;;;;;;;26.40;10.80;;;;;;;-1.27;100.00;100642.13;5151917;27;20054;-45
2022/11/28 04:58:29;;;;;;;23.65;9.63;;;;;;;-1.38;100.00;100655.69;5152146;27;20505;-46
2022/11/28 05:00:56;;;;;;;28.58;10.90;;;;;;;-0.81;100.00;100652.59;5152192;27;20050;-46
2022/11/28 05:03:27;;;;;;;24.00;10.35;;;;;;;-1.52;100.00;100648.00;5151945;27;20065;-46
2022/11/28 05:05:54;;;;;;;27.10;9.85;;;;;;;-0.88;100.00;100652.00;5151790;27;20061;-46
2022/11/28 05:08:21;;;;;;;32.08;9.57;;;;;;;-0.76;100.00;100655.38;5151949;27;20141;-46
2022/11/28 05:10:47;;;;;;;24.52;9.60;;;;;;;-1.07;100.00;100649.63;5151901;27;20142;-46
2022/11/28 05:13:13;;;;;;;27.67;8.93;;;;;;;-0.97;100.00;100657.00;5151718;27;20070;-47
2022/11/28 05:15:40;;;;;;;29.83;11.57;;;;;;;-1.11;100.00;100658.47;5152157;27;20046;-45
2022/11/28 05:18:06;;;;;;;26.40;9.65;;;;;;;-1.28;100.00;100661.22;5151493;27;20046;-46
2022/11/28 05:20:33;;;;;;;33.42;9.57;;;;;;;-1.01;100.00;100672.03;5152084;27;20502;-45
2022/11/28 05:23:01;;;;;;;26.25;8.75;;;;;;;-1.17;100.00;100664.84;5151669;27;20047;-46
2022/11/28 05:25:27;;;;;;;21.90;9.48;;;;;;;-0.98;100.00;100666.97;5151892;27;20054;-48
2022/11/28 05:27:53;;;;;;;22.58;8.68;;;;;;;-0.88;100.00;100673.53;5151542;27;20057;-47
2022/11/28 05:30:20;;;;;;;29.67;9.90;;;;;;;-0.76;100.00;100677.72;5151656;27;20047;-46
2022/11/28 05:32:46;;;;;;;26.77;9.95;;;;;;;-0.98;100.00;100680.41;5151429;27;20512;-46
2022/11/28 05:35:12;;;;;;;24.10;10.10;;;;;;;-0.85;100.00;100683.81;5151535;27;20047;-45
2022/11/28 05:37:39;;;;;;;26.88;9.27;;;;;;;-1.07;100.00;100684.63;5151580;27;20102;-46
2022/11/28 05:40:07;;;;;;;28.88;9.68;;;;;;;-0.97;100.00;100682.06;5151430;27;20498;-46
2022/11/28 05:42:34;;;;;;;28.10;9.45;;;;;;;-0.89;100.00;100683.50;5151748;27;20053;-46
2022/11/28 05:45:01;;;;;;;26.25;10.60;;;;;;;-0.81;100.00;100680.34;5151323;27;20050;-46
2022/11/28 05:47:30;;;;;;;31.70;10.05;;;;;;;-0.96;100.00;100675.63;5151605;27;20432;-47
2022/11/28 05:49:56;;;;;;;28.65;10.10;;;;;;;-0.65;100.00;100683.22;5151116;27;20498;-46
2022/11/28 05:52:22;;;;;;;21.67;10.05;;;;;;;-0.81;100.00;100677.66;5151281;27;20228;-45
2022/11/28 05:54:49;;;;;;;30.88;10.68;;;;;;;-0.94;100.00;100680.72;5150989;27;20047;-46
2022/11/28 05:57:16;;;;;;;22.00;10.05;;;;;;;-0.94;100.00;100686.13;5150091;27;20145;-46
2022/11/28 05:59:42;;;;;;;31.02;9.65;;;;;;;-1.02;100.00;100691.94;5150943;27;20476;-46
2022/11/28 06:02:08;;;;;;;30.48;11.27;;;;;;;-1.08;100.00;100699.13;5151144;27;20050;-47
2022/11/28 06:04:35;;;;;;;22.58;9.68;;;;;;;-1.22;100.00;100696.00;5150791;27;20544;-47
2022/11/28 06:07:01;;;;;;;25.80;9.93;;;;;;;-1.16;100.00;100704.97;5150869;27;20050;-45
2022/11/28 06:09:28;;;;;;;30.77;12.05;;;;;;;-1.24;100.00;100706.19;5151231;27;20502;-46
2022/11/28 06:11:54;;;;;;;33.47;11.30;;;;;;;-1.65;100.00;100691.38;5150974;27;20047;-47
2022/11/28 06:14:21;;;;;;;38.83;12.35;;;;;;;-1.18;100.00;100688.25;5151234;27;20082;-46
2022/11/28 06:16:47;;;;;;;33.55;12.05;;;;;;;-0.94;100.00;100683.44;5150944;27;20529;-46
2022/11/28 06:19:14;;;;;;;28.80;12.48;;;;;;;-1.13;100.00;100684.78;5151196;27;20101;-45
2022/11/28 06:21:41;;;;;;;29.02;10.50;;;;;;;-1.34;100.00;100686.41;5150720;27;20201;-48
2022/11/28 06:24:09;;;;;;;23.42;9.85;;;;;;;-1.17;100.00;100686.38;5150892;27;20091;-48
2022/11/28 06:26:36;;;;;;;28.55;12.57;;;;;;;-0.78;100.00;100681.72;5150577;27;20089;-47
2022/11/28 06:29:02;;;;;;;32.50;10.48;;;;;;;-1.49;100.00;100692.41;5150980;27;20057;-47
2022/11/28 06:31:30;;;;;;;33.88;11.52;;;;;;;-1.10;100.00;100679.75;5150911;27;20101;-54
2022/11/28 06:33:56;;;;;;;24.98;10.40;;;;;;;-0.99;100.00;100680.69;5150818;27;20092;-55
2022/11/28 06:36:23;;;;;;;27.08;10.23;;;;;;;-0.87;100.00;100683.22;5150704;27;20141;-55
2022/11/28 06:38:50;;;;;;;27.20;10.57;;;;;;;-0.93;100.00;100690.47;5150622;27;20047;-54
2022/11/28 06:41:19;;;;;;;29.83;10.48;;;;;;;-0.98;100.00;100703.84;5151020;27;20099;-55
2022/11/28 06:43:45;;;;;;;27.95;10.95;;;;;;;-0.89;100.00;100696.16;5150485;27;20046;-53
2022/11/28 06:46:12;;;;;;;26.65;11.05;;;;;;;-1.11;100.00;100706.91;5150770;27;20047;-52
2022/11/28 06:48:39;;;;;;;26.98;10.25;;;;;;;-0.89;100.00;100702.34;5150554;27;20082;-52
2022/11/28 06:51:06;;;;;;;24.23;9.65;;;;;;;-0.52;100.00;100697.09;5150477;27;20050;-52
2022/11/28 06:53:35;;;;;;;24.65;9.45;;;;;;;-1.09;100.00;100702.91;5150440;27;20042;-55
2022/11/28 06:56:06;;;;;;;24.63;9.90;;;;;;;-0.96;100.00;100705.22;5150330;27;20548;-51
2022/11/28 06:58:34;;;;;;;28.30;10.45;;;;;;;-0.43;100.00;100705.56;5150379;27;20050;-51
2022/11/28 07:01:07;;;;;;;28.55;10.15;;;;;;;-0.63;100.00;100699.91;5150404;27;20047;-55
2022/11/28 07:03:33;;;;;;;30.73;12.02;;;;;;;-0.58;100.00;100703.50;5150542;27;20046;-51
2022/11/28 07:06:08;;;;;;;25.30;10.13;;;;;;;-0.86;100.00;100707.22;5150207;27;20086;-55
2022/11/28 07:08:38;;;;;;;20.50;9.55;;;;;;;-0.70;100.00;100713.59;5153634;27;20057;-53
2022/11/28 07:11:11;;;;;;;26.08;9.95;;;;;;;-0.60;100.00;100704.81;5152576;27;20046;-53
2022/11/28 07:13:38;;;;;;;26.90;9.73;;;;;;;-0.53;100.00;100719.72;5153866;27;20103;-52
2022/11/28 07:16:12;;;;;;;26.75;11.05;;;;;;;-0.88;100.00;100714.72;5153125;27;20055;-53
2022/11/28 07:18:39;;;;;;;23.95;9.30;;;;;;;-0.80;100.00;100726.94;5153632;27;20073;-51
2022/11/28 07:23:49;;;;;;;24.27;11.25;;;;;;;-0.20;100.00;100722.47;5153415;27;20046;-54
2022/11/28 07:28:58;;;;;;;33.05;13.23;;;;;;;-0.29;100.00;100716.72;5152643;27;20090;-52
2022/11/28 07:31:30;;;;;;;28.20;11.95;;;;;;;-0.68;100.00;100718.72;5153432;27;20103;-54
2022/11/28 07:33:56;;;;;;;27.65;11.00;;;;;;;-0.26;100.00;100713.53;5153173;27;20047;-56
2022/11/28 07:36:27;;;;;;;25.60;10.88;;;;;;;-0.57;100.00;100715.06;5153685;27;20051;-53
2022/11/28 07:38:57;;;;;;;20.15;9.98;;;;;;;-0.66;100.00;100720.13;5153363;27;20070;-51
2022/11/28 07:41:25;;;;;;;42.13;16.90;;;;;;;-0.08;100.00;100723.94;5153369;27;20528;-52
2022/11/28 07:43:54;;;;;;;24.13;10.57;;;;;;;-0.37;100.00;100717.16;5153076;27;20444;-51
2022/11/28 07:46:24;;;;;;;24.58;11.43;;;;;;;-0.08;100.00;100723.94;5153280;27;20053;-51
2022/11/28 07:48:51;;;;;;;26.55;12.88;;;;;;;-0.39;100.00;100700.47;5153554;27;20103;-54
2022/11/28 07:51:22;;;;;;;32.03;16.15;;;;;;;-0.20;100.00;100714.38;5153139;27;20047;-52
2022/11/28 07:53:51;;;;;;;28.58;11.70;;;;;;;-0.26;100.00;100706.25;5153597;27;20050;-52
2022/11/28 07:56:21;;;;;;;18.52;8.80;;;;;;;-0.44;100.00;100697.72;5153099;27;20509;-54
2022/11/28 07:58:49;;;;;;;24.88;11.35;;;;;;;-0.01;100.00;100702.16;5153054;27;20082;-51
2022/11/28 08:01:17;;;;;;;33.10;10.50;;;;;;;0.27;100.00;100675.91;5153263;27;20086;-51
2022/11/28 08:03:46;;;;;;;25.45;12.30;;;;;;;0.48;100.00;100650.72;5153458;27;20588;-54
2022/11/28 08:06:14;;;;;;;27.05;14.82;;;;;;;0.94;100.00;100594.22;5153234;27;20412;-54
2022/11/28 08:08:50;;;;;;;18.52;8.77;;;;;;;1.04;100.00;100526.72;5152863;27;20043;-53
2022/11/28 08:11:20;;;;;;;21.52;10.63;;;;;;;0.34;100.00;100444.53;5153249;27;20089;-51
2022/11/28 08:13:50;;;;;;;19.42;8.52;;;;;;;0.46;100.00;100454.00;5152663;27;20053;-51
2022/11/28 08:16:18;;;;;;;20.92;8.32;;;;;;;0.07;100.00;100439.28;5153130;27;20051;-54
2022/11/28 08:18:47;;;;;;;15.73;8.00;;;;;;;-0.30;100.00;100488.72;5151112;27;20398;-52
2022/11/28 08:21:25;;;;;;;15.10;7.78;;;;;;;-0.42;100.00;100577.84;5153035;27;20047;-51
2022/11/28 08:23:59;;;;;;;16.17;8.13;;;;;;;-0.37;100.00;100629.06;5152714;27;20115;-54
2022/11/28 08:26:30;;;;;;;18.58;8.30;;;;;;;-0.25;100.00;100640.50;5152540;27;20046;-51
2022/11/28 08:29:00;;;;;;;14.45;7.88;;;;;;;-0.53;100.00;100644.28;5153229;27;20081;-52
2022/11/28 08:31:28;;;;;;;17.33;8.13;;;;;;;-0.60;100.00;100673.31;5152305;27;20089;-53
2022/11/28 08:33:58;;;;;;;16.40;8.35;;;;;;;-0.26;100.00;100695.47;5152810;27;20046;-54
2022/11/28 08:36:24;;;;;;;20.00;9.68;;;;;;;-0.18;100.00;100682.59;5152200;27;20058;-53
2022/11/28 08:38:51;;;;;;;18.90;9.02;;;;;;;-0.09;100.00;100691.84;5152311;27;20103;-53
2022/11/28 08:41:23;;;;;;;18.25;8.60;;;;;;;-0.30;100.00;100693.53;5152228;27;20107;-54
2022/11/28 08:43:53;;;;;;;19.42;9.20;;;;;;;-0.33;100.00;100689.47;5152315;27;20149;-53
2022/11/28 08:46:26;;;;;;;20.80;9.73;;;;;;;-0.53;100.00;100694.66;5152262;27;20050;-54
2022/11/28 08:48:54;;;;;;;20.05;9.35;;;;;;;-0.74;100.00;100707.09;5152417;27;20364;-53
2022/11/28 08:51:24;;;;;;;21.17;9.98;;;;;;;-0.62;100.00;100734.69;5151682;27;20079;-51
2022/11/28 08:53:53;;;;;;;22.10;10.07;;;;;;;-0.47;100.00;100742.13;5152174;27;20099;-51
2022/11/28 08:56:22;;;;;;;17.17;9.25;;;;;;;-0.79;100.00;100753.63;5152140;27;20062;-53
2022/11/28 08:58:52;;;;;;;21.33;9.10;;;;;;;-0.80;100.00;100756.56;5152057;27;20094;-54
2022/11/28 09:01:23;;;;;;;18.70;9.43;;;;;;;-1.03;100.00;100755.75;5152251;27;20490;-54
2022/11/28 09:03:53;;;;;;;18.60;9.45;;;;;;;-0.98;100.00;100755.00;5151862;27;20043;-53
2022/11/28 09:06:21;;;;;;;20.10;9.90;;;;;;;-0.95;100.00;100760.69;5151405;27;20166;-54
2022/11/28 09:08:49;;;;;;;18.70;9.93;;;;;;;-0.88;100.00;100760.50;5151860;27;20409;-54
2022/11/28 09:11:18;;;;;;;21.60;11.07;;;;;;;-1.03;100.00;100753.06;5151929;27;20129;-52
2022/11/28 09:13:48;;;;;;;20.83;10.95;;;;;;;-0.78;100.00;100762.50;5151555;27;20133;-52
2022/11/28 09:16:16;;;;;;;23.05;10.13;;;;;;;-1.27;100.00;100763.19;5151567;27;20452;-53
2022/11/28 09:18:45;;;;;;;21.27;10.45;;;;;;;-1.26;100.00;100756.78;5151744;27;20422;-54
2022/11/28 09:21:22;;;;;;;26.60;11.48;;;;;;;-1.15;100.00;100759.59;5151585;27;20080;-52
2022/11/28 09:23:48;;;;;;;18.80;9.07;;;;;;;-0.88;100.00;100757.00;5151640;27;20057;-54
2022/11/28 09:26:18;;;;;;;24.83;11.95;;;;;;;-1.09;100.00;100764.81;5151450;27;20046;-52
2022/11/28 09:28:49;;;;;;;19.85;10.20;;;;;;;-0.93;100.00;100765.00;5151865;27;20053;-54
2022/11/28 09:31:17;;;;;;;24.95;10.73;;;;;;;-1.16;100.00;100755.28;5151535;27;20050;-53
2022/11/28 09:33:46;;;;;;;23.95;11.70;;;;;;;-1.27;100.00;100759.69;5151617;27;20054;-51
2022/11/28 09:36:17;;;;;;;24.55;11.88;;;;;;;-0.88;100.00;100760.50;5149389;27;20050;-51
2022/11/28 09:38:45;;;;;;;24.38;11.73;;;;;;;-0.85;100.00;100769.97;5151511;27;20516;-52
2022/11/28 09:41:32;;;;;;;22.48;11.15;;;;;;;-0.93;100.00;100770.38;5151530;27;20050;-52
2022/11/28 09:44:09;;;;;;;21.00;10.68;;;;;;;-0.85;100.00;100768.09;5132965;27;20097;-53
2022/11/28 09:46:38;;;;;;;22.67;10.30;;;;;;;-0.89;100.00;100764.28;5151386;27;20046;-53
2022/11/28 09:49:15;;;;;;;29.13;13.00;;;;;;;-0.70;100.00;100778.22;5151410;27;20053;-52
2022/11/28 09:51:49;;;;;;;29.15;13.23;;;;;;;-0.62;100.00;100771.59;5151227;27;20074;-51
2022/11/28 09:54:22;;;;;;;27.02;11.50;;;;;;;-0.63;100.00;100768.09;5151718;27;20137;-52
2022/11/28 09:56:51;;;;;;;24.10;10.90;;;;;;;-0.55;100.00;100759.56;5150474;27;20154;-51
2022/11/28 09:59:26;;;;;;;23.33;12.00;;;;;;;-0.34;100.00;100757.09;5151744;27;20069;-51
2022/11/28 10:02:05;;;;;;;22.70;11.02;;;;;;;-0.69;100.00;100758.31;5151204;27;20057;-52
2022/11/28 10:04:40;;;;;;;22.60;11.50;;;;;;;-0.36;100.00;100764.63;5151393;27;20047;-55
2022/11/28 10:07:17;;;;;;;22.95;11.38;;;;;;;-0.19;100.00;100757.25;5151085;27;20076;-51
2022/11/28 10:09:56;;;;;;;24.88;10.93;;;;;;;-0.37;100.00;100747.63;5151318;27;20161;-51
2022/11/28 10:12:37;;;;;;;25.70;11.20;;;;;;;0.18;100.00;100743.03;5150712;27;20090;-51
2022/11/28 10:15:19;;;;;;;26.30;11.27;;;;;;;-0.07;100.00;100711.25;5151111;27;20566;-51
2022/11/28 10:17:56;;;;;;;24.35;11.52;;;;;;;0.08;100.00;100715.97;5150945;27;20094;-54
2022/11/28 10:20:25;;;;;;;23.75;11.50;;;;;;;-0.51;100.00;100706.78;5150761;27;20137;-52
2022/11/28 10:22:56;;;;;;;22.13;10.82;;;;;;;0.11;100.00;100727.06;5150932;27;20051;-51
2022/11/28 10:25:28;;;;;;;20.65;10.02;;;;;;;0.20;100.00;100713.91;5150389;27;20087;-52
2022/11/28 10:27:56;;;;;;;19.88;10.63;;;;;;;-0.09;100.00;100687.25;5150664;27;20145;-52
2022/11/28 10:30:28;;;;;;;18.25;9.25;;;;;;;-0.09;100.00;100695.34;5150149;27;20054;-53
2022/11/28 10:33:03;;;;;;;20.48;9.05;;;;;;;0.30;100.00;100723.97;5150567;27;20055;-50
2022/11/28 10:35:41;;;;;;;21.02;9.35;;;;;;;-0.21;100.00;100708.16;5151129;27;20133;-51
2022/11/28 10:38:12;;;;;;;18.83;9.15;;;;;;;-0.31;100.00;100735.03;5150718;27;20069;-52
2022/11/28 10:40:50;;;;;;;33.97;13.98;;;;;;;-0.08;100.00;100742.00;5150744;27;20553;-53
2022/11/28 10:43:29;;;;;;;21.92;10.15;;;;;;;-0.31;100.00;100741.22;5153280;27;20414;-50
2022/11/28 10:46:15;;;;;;;29.52;15.73;;;;;;;-0.18;100.00;100749.97;5154284;27;20065;-50
2022/11/28 10:48:50;;;;;;;28.75;15.02;;;;;;;-0.32;100.00;100752.28;5154537;27;20050;-53
2022/11/28 10:51:27;;;;;;;56.95;27.30;;;;;;;-0.65;100.00;100755.94;5154044;27;20061;-53
2022/11/28 10:54:04;;;;;;;31.65;13.20;;;;;;;-0.67;100.00;100766.94;5154537;27;20053;-50
2022/11/28 10:56:39;;;;;;;23.13;11.63;;;;;;;-0.50;100.00;100767.72;5154235;27;20266;-51
2022/11/28 10:59:16;;;;;;;21.92;10.85;;;;;;;0.02;100.00;100785.22;5154536;27;20668;-54
2022/11/28 11:01:43;;;;;;;21.83;10.52;;;;;;;-0.40;100.00;100768.88;5135640;27;20061;-50
2022/11/28 11:04:16;;;;;;;19.95;10.00;;;;;;;-0.20;100.00;100779.06;5153741;27;20077;-50
2022/11/28 11:06:44;;;;;;;23.73;11.15;;;;;;;-0.40;100.00;100775.09;5153300;27;20175;-52
2022/11/28 11:09:13;;;;;;;22.25;10.32;;;;;;;-0.58;100.00;100778.09;5153743;27;20061;-51
2022/11/28 11:11:50;;;;;;;25.63;11.23;;;;;;;-0.67;100.00;100783.09;5154049;27;20076;-51
2022/11/28 11:14:32;;;;;;;26.05;13.15;;;;;;;-0.22;100.00;100784.72;5153656;27;20086;-51
2022/11/28 11:16:59;;;;;;;18.80;9.35;;;;;;;-0.87;100.00;100783.66;5153914;27;20119;-51
2022/11/28 11:19:30;;;;;;;24.02;10.93;;;;;;;-0.12;100.00;100781.31;5154083;27;20480;-52
2022/11/28 11:22:14;;;;;;;28.55;11.30;;;;;;;-0.27;100.00;100776.56;5153776;27;20054;-50
2022/11/28 11:24:40;;;;;;;26.98;12.65;;;;;;;-0.09;100.00;100786.19;5153850;27;20469;-53
2022/11/28 11:27:16;;;;;;;20.92;11.27;;;;;;;-0.05;100.00;100788.13;5153374;27;20050;-50
2022/11/28 11:29:43;;;;;;;24.45;11.05;;;;;;;-0.09;100.00;100794.28;5153797;27;20042;-50